Lehigh, Florida
Current Conditions -  °F | °C
As of 12:53 AM on Tuesday 27 Jan 2015 (Local Time) from KRSW Reporting Station
Few Clouds Few Clouds  
Wind Chill: 58°   Ceiling: Unl
Heat Index: 58°   Visibility: 10mi
Dew Point: 49°   Wind: 6mph
Humidity: 72%   Direction: NA
Pressure: 30"   Gusts: NA
Location:  26.6076°N, 81.705°W
Report Text: KRSW 270553Z VRB05KT 10SM FEW038 14/09 A3000 RMK AO2 SLP156 T01440094 10167 20144 51008
Loading
Personal Weather Stations






























Interactive Weather Map New forecast layout! Learn more

10-Day Weather Forecast

Advertisements
Track Severe Weather on mobile